sensor_id;sensor_type;location;lat;lon;timestamp;P1;durP1;ratioP1;P2;durP2;ratioP2
23068;SDS011;11702;50.856;4.348;2022-08-19T00:02:24;24.48;;;21.05;;
23068;SDS011;11702;50.856;4.348;2022-08-19T00:04:50;25.95;;;22.08;;
23068;SDS011;11702;50.856;4.348;2022-08-19T00:07:18;25.35;;;21.83;;
23068;SDS011;11702;50.856;4.348;2022-08-19T00:09:44;27.48;;;22.95;;
23068;SDS011;11702;50.856;4.348;2022-08-19T00:12:09;26.80;;;23.27;;
23068;SDS011;11702;50.856;4.348;2022-08-19T00:14:36;24.63;;;21.92;;
23068;SDS011;11702;50.856;4.348;2022-08-19T00:17:02;31.77;;;23.52;;
23068;SDS011;11702;50.856;4.348;2022-08-19T00:19:28;27.98;;;24.75;;
23068;SDS011;11702;50.856;4.348;2022-08-19T00:21:54;36.13;;;27.00;;
23068;SDS011;11702;50.856;4.348;2022-08-19T00:24:21;32.08;;;27.60;;
23068;SDS011;11702;50.856;4.348;2022-08-19T00:26:48;40.92;;;30.30;;
23068;SDS011;11702;50.856;4.348;2022-08-19T00:29:16;41.88;;;31.40;;
23068;SDS011;11702;50.856;4.348;2022-08-19T00:31:44;43.33;;;33.08;;
23068;SDS011;11702;50.856;4.348;2022-08-19T00:34:11;44.78;;;32.42;;
23068;SDS011;11702;50.856;4.348;2022-08-19T00:36:37;41.70;;;32.03;;
23068;SDS011;11702;50.856;4.348;2022-08-19T00:39:04;45.38;;;33.22;;
23068;SDS011;11702;50.856;4.348;2022-08-19T00:41:30;47.55;;;34.28;;
23068;SDS011;11702;50.856;4.348;2022-08-19T00:44:00;44.00;;;34.40;;
23068;SDS011;11702;50.856;4.348;2022-08-19T00:46:39;46.40;;;33.83;;
23068;SDS011;11702;50.856;4.348;2022-08-19T00:49:27;46.65;;;32.88;;
23068;SDS011;11702;50.856;4.348;2022-08-19T00:54:33;55.03;;;39.10;;
23068;SDS011;11702;50.856;4.348;2022-08-19T00:57:02;53.92;;;39.10;;
23068;SDS011;11702;50.856;4.348;2022-08-19T00:59:31;53.13;;;38.10;;
23068;SDS011;11702;50.856;4.348;2022-08-19T01:02:00;59.35;;;39.38;;
23068;SDS011;11702;50.856;4.348;2022-08-19T01:04:26;54.92;;;38.53;;
23068;SDS011;11702;50.856;4.348;2022-08-19T01:06:52;56.63;;;40.33;;
23068;SDS011;11702;50.856;4.348;2022-08-19T01:09:17;54.05;;;39.38;;
23068;SDS011;11702;50.856;4.348;2022-08-19T01:11:43;56.40;;;40.58;;
23068;SDS011;11702;50.856;4.348;2022-08-19T01:14:10;58.10;;;40.13;;
23068;SDS011;11702;50.856;4.348;2022-08-19T01:16:37;53.53;;;37.00;;
23068;SDS011;11702;50.856;4.348;2022-08-19T01:19:09;53.92;;;38.28;;
23068;SDS011;11702;50.856;4.348;2022-08-19T01:22:55;48.28;;;35.63;;
23068;SDS011;11702;50.856;4.348;2022-08-19T01:24:48;49.15;;;34.47;;
23068;SDS011;11702;50.856;4.348;2022-08-19T01:27:14;45.58;;;32.40;;
23068;SDS011;11702;50.856;4.348;2022-08-19T01:29:41;45.03;;;33.28;;
23068;SDS011;11702;50.856;4.348;2022-08-19T01:32:09;50.42;;;35.15;;
23068;SDS011;11702;50.856;4.348;2022-08-19T01:34:38;46.72;;;35.92;;
23068;SDS011;11702;50.856;4.348;2022-08-19T01:37:08;48.65;;;34.70;;
23068;SDS011;11702;50.856;4.348;2022-08-19T01:39:36;51.00;;;35.20;;
23068;SDS011;11702;50.856;4.348;2022-08-19T01:42:07;41.72;;;33.28;;
23068;SDS011;11702;50.856;4.348;2022-08-19T01:44:35;44.08;;;32.47;;
23068;SDS011;11702;50.856;4.348;2022-08-19T01:47:01;42.03;;;31.85;;
23068;SDS011;11702;50.856;4.348;2022-08-19T01:49:28;41.55;;;30.75;;
23068;SDS011;11702;50.856;4.348;2022-08-19T01:51:55;40.83;;;30.60;;
23068;SDS011;11702;50.856;4.348;2022-08-19T01:54:22;41.13;;;29.65;;
23068;SDS011;11702;50.856;4.348;2022-08-19T01:56:48;36.05;;;29.63;;
23068;SDS011;11702;50.856;4.348;2022-08-19T01:59:17;39.47;;;30.23;;
23068;SDS011;11702;50.856;4.348;2022-08-19T02:01:45;36.50;;;28.23;;
23068;SDS011;11702;50.856;4.348;2022-08-19T02:04:11;41.33;;;30.05;;
23068;SDS011;11702;50.856;4.348;2022-08-19T02:06:37;38.67;;;29.15;;
23068;SDS011;11702;50.856;4.348;2022-08-19T02:09:03;35.95;;;25.30;;
23068;SDS011;11702;50.856;4.348;2022-08-19T02:11:31;34.67;;;25.15;;
23068;SDS011;11702;50.856;4.348;2022-08-19T02:13:59;27.70;;;21.95;;
23068;SDS011;11702;50.856;4.348;2022-08-19T02:16:30;27.05;;;21.33;;
23068;SDS011;11702;50.856;4.348;2022-08-19T02:18:56;25.08;;;20.35;;
23068;SDS011;11702;50.856;4.348;2022-08-19T02:21:23;33.45;;;21.20;;
23068;SDS011;11702;50.856;4.348;2022-08-19T02:23:49;25.25;;;21.27;;
23068;SDS011;11702;50.856;4.348;2022-08-19T02:26:15;27.88;;;22.00;;
23068;SDS011;11702;50.856;4.348;2022-08-19T02:28:42;30.83;;;22.67;;
23068;SDS011;11702;50.856;4.348;2022-08-19T02:31:09;30.55;;;24.02;;
23068;SDS011;11702;50.856;4.348;2022-08-19T02:33:37;34.33;;;27.08;;
23068;SDS011;11702;50.856;4.348;2022-08-19T02:36:03;33.90;;;28.00;;
23068;SDS011;11702;50.856;4.348;2022-08-19T02:38:30;39.45;;;29.02;;
23068;SDS011;11702;50.856;4.348;2022-08-19T02:41:02;38.35;;;26.50;;
23068;SDS011;11702;50.856;4.348;2022-08-19T02:43:31;33.90;;;25.52;;
23068;SDS011;11702;50.856;4.348;2022-08-19T02:45:57;35.20;;;26.45;;
23068;SDS011;11702;50.856;4.348;2022-08-19T02:48:23;34.50;;;25.17;;
23068;SDS011;11702;50.856;4.348;2022-08-19T02:50:51;35.72;;;26.65;;
23068;SDS011;11702;50.856;4.348;2022-08-19T02:53:20;34.83;;;25.98;;
23068;SDS011;11702;50.856;4.348;2022-08-19T02:55:50;34.30;;;26.85;;
23068;SDS011;11702;50.856;4.348;2022-08-19T02:58:16;37.45;;;25.27;;
23068;SDS011;11702;50.856;4.348;2022-08-19T03:00:45;36.25;;;25.60;;
23068;SDS011;11702;50.856;4.348;2022-08-19T03:03:13;38.63;;;26.83;;
23068;SDS011;11702;50.856;4.348;2022-08-19T03:05:39;35.25;;;25.17;;
23068;SDS011;11702;50.856;4.348;2022-08-19T03:08:05;35.25;;;25.85;;
23068;SDS011;11702;50.856;4.348;2022-08-19T03:10:32;34.22;;;24.05;;
23068;SDS011;11702;50.856;4.348;2022-08-19T03:12:57;31.13;;;21.95;;
23068;SDS011;11702;50.856;4.348;2022-08-19T03:15:23;33.65;;;24.15;;
23068;SDS011;11702;50.856;4.348;2022-08-19T03:17:49;30.90;;;23.30;;
23068;SDS011;11702;50.856;4.348;2022-08-19T03:20:14;35.20;;;23.98;;
23068;SDS011;11702;50.856;4.348;2022-08-19T03:22:40;32.53;;;23.17;;
23068;SDS011;11702;50.856;4.348;2022-08-19T03:25:06;33.50;;;24.10;;
23068;SDS011;11702;50.856;4.348;2022-08-19T03:27:31;33.63;;;23.40;;
23068;SDS011;11702;50.856;4.348;2022-08-19T03:29:57;34.63;;;23.92;;
23068;SDS011;11702;50.856;4.348;2022-08-19T03:32:23;34.55;;;24.15;;
23068;SDS011;11702;50.856;4.348;2022-08-19T03:34:48;33.95;;;22.70;;
23068;SDS011;11702;50.856;4.348;2022-08-19T03:37:15;36.17;;;24.65;;
23068;SDS011;11702;50.856;4.348;2022-08-19T03:39:41;30.17;;;22.75;;
23068;SDS011;11702;50.856;4.348;2022-08-19T03:42:07;35.53;;;23.58;;
23068;SDS011;11702;50.856;4.348;2022-08-19T03:44:33;34.33;;;24.25;;
23068;SDS011;11702;50.856;4.348;2022-08-19T03:47:01;38.58;;;23.98;;
23068;SDS011;11702;50.856;4.348;2022-08-19T03:49:28;34.08;;;23.80;;
23068;SDS011;11702;50.856;4.348;2022-08-19T03:51:56;37.70;;;24.98;;
23068;SDS011;11702;50.856;4.348;2022-08-19T03:54:24;36.15;;;24.83;;
23068;SDS011;11702;50.856;4.348;2022-08-19T03:56:50;35.78;;;23.90;;
23068;SDS011;11702;50.856;4.348;2022-08-19T03:59:20;37.70;;;23.10;;
23068;SDS011;11702;50.856;4.348;2022-08-19T04:02:01;33.97;;;23.00;;
23068;SDS011;11702;50.856;4.348;2022-08-19T04:04:28;34.45;;;23.08;;
23068;SDS011;11702;50.856;4.348;2022-08-19T04:06:53;37.75;;;24.15;;
23068;SDS011;11702;50.856;4.348;2022-08-19T04:09:19;35.03;;;24.55;;
23068;SDS011;11702;50.856;4.348;2022-08-19T04:11:46;39.53;;;23.48;;
23068;SDS011;11702;50.856;4.348;2022-08-19T04:14:16;33.15;;;22.83;;
23068;SDS011;11702;50.856;4.348;2022-08-19T04:16:44;36.70;;;24.83;;
23068;SDS011;11702;50.856;4.348;2022-08-19T04:19:11;34.38;;;23.77;;
23068;SDS011;11702;50.856;4.348;2022-08-19T04:21:38;36.95;;;24.65;;
23068;SDS011;11702;50.856;4.348;2022-08-19T04:24:08;36.97;;;24.88;;
23068;SDS011;11702;50.856;4.348;2022-08-19T04:26:35;36.00;;;23.83;;
23068;SDS011;11702;50.856;4.348;2022-08-19T04:29:04;35.92;;;23.90;;
23068;SDS011;11702;50.856;4.348;2022-08-19T04:31:32;34.63;;;22.55;;
23068;SDS011;11702;50.856;4.348;2022-08-19T04:34:02;34.70;;;23.98;;
23068;SDS011;11702;50.856;4.348;2022-08-19T04:36:32;40.67;;;23.90;;
23068;SDS011;11702;50.856;4.348;2022-08-19T04:39:05;36.28;;;23.33;;
23068;SDS011;11702;50.856;4.348;2022-08-19T04:41:32;33.10;;;21.20;;
23068;SDS011;11702;50.856;4.348;2022-08-19T04:44:16;32.17;;;21.98;;
23068;SDS011;11702;50.856;4.348;2022-08-19T04:46:45;32.42;;;20.65;;
23068;SDS011;11702;50.856;4.348;2022-08-19T04:49:12;33.63;;;20.83;;
23068;SDS011;11702;50.856;4.348;2022-08-19T04:51:40;30.67;;;20.23;;
23068;SDS011;11702;50.856;4.348;2022-08-19T04:54:07;33.35;;;20.60;;
23068;SDS011;11702;50.856;4.348;2022-08-19T04:56:33;32.15;;;19.70;;
23068;SDS011;11702;50.856;4.348;2022-08-19T04:58:59;27.42;;;18.90;;
23068;SDS011;11702;50.856;4.348;2022-08-19T05:01:28;28.90;;;20.42;;
23068;SDS011;11702;50.856;4.348;2022-08-19T05:03:55;28.38;;;18.77;;
23068;SDS011;11702;50.856;4.348;2022-08-19T05:06:22;29.92;;;19.15;;
23068;SDS011;11702;50.856;4.348;2022-08-19T05:08:48;36.85;;;18.95;;
23068;SDS011;11702;50.856;4.348;2022-08-19T05:11:25;28.48;;;17.45;;
23068;SDS011;11702;50.856;4.348;2022-08-19T05:13:56;30.25;;;17.67;;
23068;SDS011;11702;50.856;4.348;2022-08-19T05:16:23;31.90;;;17.02;;
23068;SDS011;11702;50.856;4.348;2022-08-19T05:18:50;36.00;;;18.58;;
23068;SDS011;11702;50.856;4.348;2022-08-19T05:21:34;37.08;;;20.75;;
23068;SDS011;11702;50.856;4.348;2022-08-19T05:24:20;26.17;;;18.42;;
23068;SDS011;11702;50.856;4.348;2022-08-19T05:26:47;29.85;;;19.40;;
23068;SDS011;11702;50.856;4.348;2022-08-19T05:29:15;31.15;;;19.80;;
23068;SDS011;11702;50.856;4.348;2022-08-19T05:31:43;27.95;;;19.92;;
23068;SDS011;11702;50.856;4.348;2022-08-19T05:34:09;25.85;;;19.05;;
23068;SDS011;11702;50.856;4.348;2022-08-19T05:36:37;28.35;;;19.98;;
23068;SDS011;11702;50.856;4.348;2022-08-19T05:39:04;32.42;;;18.73;;
23068;SDS011;11702;50.856;4.348;2022-08-19T05:41:31;30.13;;;19.23;;
23068;SDS011;11702;50.856;4.348;2022-08-19T05:43:57;45.92;;;19.45;;
23068;SDS011;11702;50.856;4.348;2022-08-19T05:46:23;28.58;;;15.88;;
23068;SDS011;11702;50.856;4.348;2022-08-19T05:48:49;26.95;;;16.20;;
23068;SDS011;11702;50.856;4.348;2022-08-19T05:51:15;29.75;;;15.82;;
23068;SDS011;11702;50.856;4.348;2022-08-19T05:53:41;32.65;;;16.40;;
23068;SDS011;11702;50.856;4.348;2022-08-19T05:56:08;28.83;;;14.98;;
23068;SDS011;11702;50.856;4.348;2022-08-19T05:58:35;24.60;;;14.18;;
23068;SDS011;11702;50.856;4.348;2022-08-19T06:01:03;28.50;;;15.20;;
23068;SDS011;11702;50.856;4.348;2022-08-19T06:03:34;22.52;;;13.90;;
23068;SDS011;11702;50.856;4.348;2022-08-19T06:06:02;19.08;;;13.75;;
23068;SDS011;11702;50.856;4.348;2022-08-19T06:08:28;21.92;;;13.95;;
23068;SDS011;11702;50.856;4.348;2022-08-19T06:10:54;33.38;;;13.77;;
23068;SDS011;11702;50.856;4.348;2022-08-19T06:13:20;21.60;;;11.52;;
23068;SDS011;11702;50.856;4.348;2022-08-19T06:15:47;25.23;;;11.18;;
23068;SDS011;11702;50.856;4.348;2022-08-19T06:18:14;21.00;;;11.45;;
23068;SDS011;11702;50.856;4.348;2022-08-19T06:20:40;20.83;;;12.20;;
23068;SDS011;11702;50.856;4.348;2022-08-19T06:23:06;20.75;;;12.38;;
23068;SDS011;11702;50.856;4.348;2022-08-19T06:25:33;20.95;;;10.93;;
23068;SDS011;11702;50.856;4.348;2022-08-19T06:27:58;19.75;;;11.38;;
23068;SDS011;11702;50.856;4.348;2022-08-19T06:30:24;18.83;;;10.18;;
23068;SDS011;11702;50.856;4.348;2022-08-19T06:32:50;21.38;;;9.75;;
23068;SDS011;11702;50.856;4.348;2022-08-19T06:35:15;17.30;;;9.93;;
23068;SDS011;11702;50.856;4.348;2022-08-19T06:37:41;16.63;;;9.57;;
23068;SDS011;11702;50.856;4.348;2022-08-19T06:40:07;19.85;;;9.40;;
23068;SDS011;11702;50.856;4.348;2022-08-19T06:42:35;18.23;;;8.88;;
23068;SDS011;11702;50.856;4.348;2022-08-19T06:45:03;21.75;;;8.25;;
23068;SDS011;11702;50.856;4.348;2022-08-19T06:47:30;21.83;;;8.85;;
23068;SDS011;11702;50.856;4.348;2022-08-19T06:49:57;15.15;;;8.65;;
23068;SDS011;11702;50.856;4.348;2022-08-19T06:52:32;14.48;;;9.00;;
23068;SDS011;11702;50.856;4.348;2022-08-19T06:55:00;13.43;;;9.02;;
23068;SDS011;11702;50.856;4.348;2022-08-19T06:57:27;15.35;;;8.63;;
23068;SDS011;11702;50.856;4.348;2022-08-19T06:59:56;19.45;;;9.57;;
23068;SDS011;11702;50.856;4.348;2022-08-19T07:02:22;9.25;;;7.55;;
23068;SDS011;11702;50.856;4.348;2022-08-19T07:04:51;17.33;;;8.43;;
23068;SDS011;11702;50.856;4.348;2022-08-19T07:07:17;16.38;;;8.05;;
23068;SDS011;11702;50.856;4.348;2022-08-19T07:09:43;14.48;;;8.27;;
23068;SDS011;11702;50.856;4.348;2022-08-19T07:12:11;18.23;;;8.70;;
23068;SDS011;11702;50.856;4.348;2022-08-19T07:14:40;14.32;;;7.85;;
23068;SDS011;11702;50.856;4.348;2022-08-19T07:17:07;15.35;;;7.80;;
23068;SDS011;11702;50.856;4.348;2022-08-19T07:19:34;13.13;;;7.90;;
23068;SDS011;11702;50.856;4.348;2022-08-19T07:22:01;17.48;;;8.05;;
23068;SDS011;11702;50.856;4.348;2022-08-19T07:24:29;15.30;;;7.40;;
23068;SDS011;11702;50.856;4.348;2022-08-19T07:26:56;8.60;;;7.28;;
23068;SDS011;11702;50.856;4.348;2022-08-19T07:29:25;14.90;;;7.18;;
23068;SDS011;11702;50.856;4.348;2022-08-19T07:31:51;14.80;;;6.85;;
23068;SDS011;11702;50.856;4.348;2022-08-19T07:34:20;11.77;;;6.53;;
23068;SDS011;11702;50.856;4.348;2022-08-19T07:36:47;9.27;;;6.35;;
23068;SDS011;11702;50.856;4.348;2022-08-19T07:39:20;11.82;;;6.13;;
23068;SDS011;11702;50.856;4.348;2022-08-19T07:41:49;10.70;;;6.07;;
23068;SDS011;11702;50.856;4.348;2022-08-19T07:44:15;11.45;;;6.32;;
23068;SDS011;11702;50.856;4.348;2022-08-19T07:46:43;17.35;;;6.40;;
23068;SDS011;11702;50.856;4.348;2022-08-19T07:49:11;17.42;;;6.03;;
23068;SDS011;11702;50.856;4.348;2022-08-19T07:51:38;10.27;;;5.93;;
23068;SDS011;11702;50.856;4.348;2022-08-19T07:54:04;11.60;;;6.35;;
23068;SDS011;11702;50.856;4.348;2022-08-19T07:56:29;13.95;;;6.13;;
23068;SDS011;11702;50.856;4.348;2022-08-19T07:58:55;12.45;;;6.55;;
23068;SDS011;11702;50.856;4.348;2022-08-19T08:01:24;15.52;;;6.78;;
23068;SDS011;11702;50.856;4.348;2022-08-19T08:03:53;18.42;;;6.88;;
23068;SDS011;11702;50.856;4.348;2022-08-19T08:06:40;8.93;;;5.75;;
23068;SDS011;11702;50.856;4.348;2022-08-19T08:09:25;13.93;;;5.97;;
23068;SDS011;11702;50.856;4.348;2022-08-19T08:11:54;12.13;;;5.97;;
23068;SDS011;11702;50.856;4.348;2022-08-19T08:16:53;13.73;;;5.57;;
23068;SDS011;11702;50.856;4.348;2022-08-19T08:19:19;12.05;;;5.40;;
23068;SDS011;11702;50.856;4.348;2022-08-19T08:21:48;11.95;;;6.10;;
23068;SDS011;11702;50.856;4.348;2022-08-19T08:24:15;8.68;;;5.57;;
23068;SDS011;11702;50.856;4.348;2022-08-19T08:26:42;9.10;;;5.70;;
23068;SDS011;11702;50.856;4.348;2022-08-19T08:29:09;11.90;;;5.88;;
23068;SDS011;11702;50.856;4.348;2022-08-19T08:31:38;11.38;;;5.13;;
23068;SDS011;11702;50.856;4.348;2022-08-19T08:34:08;9.32;;;5.07;;
23068;SDS011;11702;50.856;4.348;2022-08-19T08:36:37;11.15;;;5.00;;
23068;SDS011;11702;50.856;4.348;2022-08-19T08:39:12;19.83;;;6.40;;
23068;SDS011;11702;50.856;4.348;2022-08-19T08:44:33;13.55;;;6.07;;
23068;SDS011;11702;50.856;4.348;2022-08-19T08:47:11;8.10;;;5.68;;
23068;SDS011;11702;50.856;4.348;2022-08-19T08:49:43;13.60;;;5.53;;
23068;SDS011;11702;50.856;4.348;2022-08-19T08:54:48;9.85;;;5.47;;
23068;SDS011;11702;50.856;4.348;2022-08-19T08:57:23;14.80;;;5.22;;
23068;SDS011;11702;50.856;4.348;2022-08-19T09:00:12;6.15;;;5.05;;
23068;SDS011;11702;50.856;4.348;2022-08-19T09:02:43;7.85;;;5.15;;
23068;SDS011;11702;50.856;4.348;2022-08-19T09:05:10;17.27;;;5.85;;
23068;SDS011;11702;50.856;4.348;2022-08-19T09:19:03;11.25;;;5.45;;
23068;SDS011;11702;50.856;4.348;2022-08-19T09:21:31;10.05;;;5.10;;
23068;SDS011;11702;50.856;4.348;2022-08-19T09:23:57;10.10;;;5.07;;
23068;SDS011;11702;50.856;4.348;2022-08-19T09:26:23;8.30;;;4.93;;
23068;SDS011;11702;50.856;4.348;2022-08-19T09:28:50;7.95;;;4.82;;
23068;SDS011;11702;50.856;4.348;2022-08-19T09:31:24;7.53;;;4.43;;
23068;SDS011;11702;50.856;4.348;2022-08-19T09:33:52;9.38;;;4.68;;
23068;SDS011;11702;50.856;4.348;2022-08-19T09:36:22;10.02;;;4.70;;
23068;SDS011;11702;50.856;4.348;2022-08-19T09:38:50;9.45;;;5.15;;
23068;SDS011;11702;50.856;4.348;2022-08-19T09:41:18;7.93;;;4.85;;
23068;SDS011;11702;50.856;4.348;2022-08-19T09:43:46;7.10;;;4.82;;
23068;SDS011;11702;50.856;4.348;2022-08-19T09:46:17;10.93;;;5.55;;
23068;SDS011;11702;50.856;4.348;2022-08-19T09:48:46;9.45;;;4.88;;
23068;SDS011;11702;50.856;4.348;2022-08-19T09:51:15;8.60;;;4.22;;
23068;SDS011;11702;50.856;4.348;2022-08-19T09:53:51;8.32;;;4.70;;
23068;SDS011;11702;50.856;4.348;2022-08-19T09:56:21;9.15;;;4.75;;
23068;SDS011;11702;50.856;4.348;2022-08-19T09:58:47;7.95;;;4.50;;
23068;SDS011;11702;50.856;4.348;2022-08-19T10:01:23;7.80;;;4.63;;
23068;SDS011;11702;50.856;4.348;2022-08-19T10:03:52;8.02;;;4.60;;
23068;SDS011;11702;50.856;4.348;2022-08-19T10:06:20;8.57;;;5.10;;
23068;SDS011;11702;50.856;4.348;2022-08-19T10:08:50;7.35;;;4.15;;
23068;SDS011;11702;50.856;4.348;2022-08-19T10:11:17;9.30;;;4.10;;
23068;SDS011;11702;50.856;4.348;2022-08-19T10:13:44;9.02;;;4.28;;
23068;SDS011;11702;50.856;4.348;2022-08-19T10:16:11;5.47;;;4.05;;
23068;SDS011;11702;50.856;4.348;2022-08-19T10:18:40;14.40;;;4.43;;
23068;SDS011;11702;50.856;4.348;2022-08-19T10:21:16;8.07;;;4.35;;
23068;SDS011;11702;50.856;4.348;2022-08-19T10:23:56;6.55;;;4.22;;
23068;SDS011;11702;50.856;4.348;2022-08-19T10:26:25;9.27;;;4.40;;
23068;SDS011;11702;50.856;4.348;2022-08-19T10:28:59;6.85;;;4.50;;
23068;SDS011;11702;50.856;4.348;2022-08-19T10:31:26;7.88;;;4.45;;
23068;SDS011;11702;50.856;4.348;2022-08-19T10:33:53;8.93;;;4.05;;
23068;SDS011;11702;50.856;4.348;2022-08-19T10:36:23;7.85;;;5.03;;
23068;SDS011;11702;50.856;4.348;2022-08-19T10:38:55;9.13;;;4.88;;
23068;SDS011;11702;50.856;4.348;2022-08-19T10:41:24;9.52;;;5.25;;
23068;SDS011;11702;50.856;4.348;2022-08-19T10:43:52;8.82;;;5.70;;
23068;SDS011;11702;50.856;4.348;2022-08-19T10:46:19;8.15;;;5.70;;
23068;SDS011;11702;50.856;4.348;2022-08-19T10:48:46;9.75;;;6.60;;
23068;SDS011;11702;50.856;4.348;2022-08-19T10:51:13;5.88;;;5.25;;
23068;SDS011;11702;50.856;4.348;2022-08-19T10:53:58;9.18;;;5.43;;
23068;SDS011;11702;50.856;4.348;2022-08-19T10:56:24;11.77;;;5.70;;
23068;SDS011;11702;50.856;4.348;2022-08-19T10:59:10;12.80;;;5.65;;
23068;SDS011;11702;50.856;4.348;2022-08-19T11:01:39;6.60;;;5.70;;
23068;SDS011;11702;50.856;4.348;2022-08-19T11:04:06;7.28;;;5.80;;
23068;SDS011;11702;50.856;4.348;2022-08-19T11:06:35;8.98;;;5.75;;
23068;SDS011;11702;50.856;4.348;2022-08-19T11:09:03;11.80;;;6.18;;
23068;SDS011;11702;50.856;4.348;2022-08-19T11:11:30;7.97;;;5.70;;
23068;SDS011;11702;50.856;4.348;2022-08-19T11:13:57;7.30;;;5.40;;
23068;SDS011;11702;50.856;4.348;2022-08-19T11:16:23;13.85;;;5.82;;
23068;SDS011;11702;50.856;4.348;2022-08-19T11:18:56;8.45;;;5.10;;
23068;SDS011;11702;50.856;4.348;2022-08-19T11:21:28;6.45;;;4.65;;
23068;SDS011;11702;50.856;4.348;2022-08-19T11:23:57;7.53;;;4.70;;
23068;SDS011;11702;50.856;4.348;2022-08-19T11:26:25;6.07;;;4.13;;
23068;SDS011;11702;50.856;4.348;2022-08-19T11:28:52;9.10;;;5.32;;
23068;SDS011;11702;50.856;4.348;2022-08-19T11:31:20;12.75;;;6.85;;
23068;SDS011;11702;50.856;4.348;2022-08-19T11:33:48;10.32;;;7.22;;
23068;SDS011;11702;50.856;4.348;2022-08-19T11:36:18;13.43;;;8.07;;
23068;SDS011;11702;50.856;4.348;2022-08-19T11:38:45;8.35;;;7.55;;
23068;SDS011;11702;50.856;4.348;2022-08-19T11:41:13;12.65;;;8.20;;
23068;SDS011;11702;50.856;4.348;2022-08-19T11:43:40;16.92;;;8.02;;
23068;SDS011;11702;50.856;4.348;2022-08-19T11:46:07;9.07;;;7.80;;
23068;SDS011;11702;50.856;4.348;2022-08-19T11:48:35;8.68;;;6.75;;
23068;SDS011;11702;50.856;4.348;2022-08-19T11:51:03;9.43;;;7.10;;
23068;SDS011;11702;50.856;4.348;2022-08-19T11:53:33;9.32;;;7.00;;
23068;SDS011;11702;50.856;4.348;2022-08-19T11:55:59;10.90;;;7.20;;
23068;SDS011;11702;50.856;4.348;2022-08-19T11:58:25;10.98;;;6.40;;
23068;SDS011;11702;50.856;4.348;2022-08-19T12:00:51;14.02;;;6.80;;
23068;SDS011;11702;50.856;4.348;2022-08-19T12:03:17;13.38;;;6.80;;
23068;SDS011;11702;50.856;4.348;2022-08-19T12:05:44;9.02;;;5.45;;
23068;SDS011;11702;50.856;4.348;2022-08-19T12:08:10;8.15;;;5.38;;
23068;SDS011;11702;50.856;4.348;2022-08-19T12:10:37;6.78;;;5.22;;
23068;SDS011;11702;50.856;4.348;2022-08-19T12:13:04;10.90;;;5.55;;
23068;SDS011;11702;50.856;4.348;2022-08-19T12:15:34;10.32;;;5.68;;
23068;SDS011;11702;50.856;4.348;2022-08-19T12:18:02;9.25;;;4.75;;
23068;SDS011;11702;50.856;4.348;2022-08-19T12:20:28;8.20;;;5.10;;
23068;SDS011;11702;50.856;4.348;2022-08-19T12:22:54;7.43;;;4.32;;
23068;SDS011;11702;50.856;4.348;2022-08-19T12:25:20;6.63;;;4.32;;
23068;SDS011;11702;50.856;4.348;2022-08-19T12:27:46;7.97;;;4.25;;
23068;SDS011;11702;50.856;4.348;2022-08-19T12:30:12;9.95;;;4.22;;
23068;SDS011;11702;50.856;4.348;2022-08-19T12:32:39;6.15;;;4.00;;
23068;SDS011;11702;50.856;4.348;2022-08-19T12:35:05;4.95;;;3.50;;
23068;SDS011;11702;50.856;4.348;2022-08-19T12:37:31;3.67;;;3.20;;
23068;SDS011;11702;50.856;4.348;2022-08-19T12:39:57;3.67;;;3.25;;
23068;SDS011;11702;50.856;4.348;2022-08-19T12:42:23;5.20;;;3.00;;
23068;SDS011;11702;50.856;4.348;2022-08-19T12:44:49;7.10;;;3.33;;
23068;SDS011;11702;50.856;4.348;2022-08-19T12:47:16;5.30;;;3.13;;
23068;SDS011;11702;50.856;4.348;2022-08-19T12:49:42;5.18;;;3.05;;
23068;SDS011;11702;50.856;4.348;2022-08-19T12:52:09;3.95;;;2.85;;
23068;SDS011;11702;50.856;4.348;2022-08-19T12:54:35;5.75;;;3.53;;
23068;SDS011;11702;50.856;4.348;2022-08-19T12:57:05;6.15;;;3.33;;
23068;SDS011;11702;50.856;4.348;2022-08-19T12:59:32;6.47;;;2.90;;
23068;SDS011;11702;50.856;4.348;2022-08-19T13:01:59;7.43;;;2.80;;
23068;SDS011;11702;50.856;4.348;2022-08-19T13:04:25;5.50;;;2.30;;
23068;SDS011;11702;50.856;4.348;2022-08-19T13:06:51;5.95;;;2.70;;
23068;SDS011;11702;50.856;4.348;2022-08-19T13:09:16;3.85;;;2.75;;
23068;SDS011;11702;50.856;4.348;2022-08-19T13:11:42;5.32;;;2.40;;
23068;SDS011;11702;50.856;4.348;2022-08-19T13:14:08;4.90;;;2.67;;
23068;SDS011;11702;50.856;4.348;2022-08-19T13:16:36;6.10;;;2.13;;
23068;SDS011;11702;50.856;4.348;2022-08-19T13:19:03;12.05;;;2.60;;
23068;SDS011;11702;50.856;4.348;2022-08-19T13:21:30;5.50;;;2.58;;
23068;SDS011;11702;50.856;4.348;2022-08-19T13:23:56;3.95;;;2.35;;
23068;SDS011;11702;50.856;4.348;2022-08-19T13:26:22;4.25;;;2.20;;
23068;SDS011;11702;50.856;4.348;2022-08-19T13:28:49;3.60;;;2.25;;
23068;SDS011;11702;50.856;4.348;2022-08-19T13:31:34;2.83;;;2.30;;
23068;SDS011;11702;50.856;4.348;2022-08-19T13:34:25;5.03;;;2.17;;
23068;SDS011;11702;50.856;4.348;2022-08-19T13:36:53;2.60;;;2.00;;
23068;SDS011;11702;50.856;4.348;2022-08-19T13:39:19;7.07;;;2.47;;
23068;SDS011;11702;50.856;4.348;2022-08-19T13:41:45;6.57;;;2.40;;
23068;SDS011;11702;50.856;4.348;2022-08-19T13:44:13;5.53;;;2.10;;
23068;SDS011;11702;50.856;4.348;2022-08-19T13:46:40;5.30;;;2.00;;
23068;SDS011;11702;50.856;4.348;2022-08-19T13:49:09;5.63;;;2.20;;
23068;SDS011;11702;50.856;4.348;2022-08-19T13:51:35;8.88;;;3.20;;
23068;SDS011;11702;50.856;4.348;2022-08-19T13:54:02;7.10;;;2.40;;
23068;SDS011;11702;50.856;4.348;2022-08-19T13:56:30;5.38;;;2.65;;
23068;SDS011;11702;50.856;4.348;2022-08-19T13:58:56;6.88;;;2.70;;
23068;SDS011;11702;50.856;4.348;2022-08-19T14:01:22;3.17;;;2.08;;
23068;SDS011;11702;50.856;4.348;2022-08-19T14:03:49;3.75;;;2.45;;
23068;SDS011;11702;50.856;4.348;2022-08-19T14:06:15;4.57;;;2.33;;
23068;SDS011;11702;50.856;4.348;2022-08-19T14:08:41;5.93;;;2.40;;
23068;SDS011;11702;50.856;4.348;2022-08-19T14:11:07;5.30;;;2.40;;
23068;SDS011;11702;50.856;4.348;2022-08-19T14:13:34;6.45;;;2.63;;
23068;SDS011;11702;50.856;4.348;2022-08-19T14:15:59;7.00;;;2.30;;
23068;SDS011;11702;50.856;4.348;2022-08-19T14:18:25;3.70;;;2.25;;
23068;SDS011;11702;50.856;4.348;2022-08-19T14:20:51;4.10;;;2.33;;
23068;SDS011;11702;50.856;4.348;2022-08-19T14:23:17;4.45;;;2.60;;
23068;SDS011;11702;50.856;4.348;2022-08-19T14:25:43;4.13;;;2.55;;
23068;SDS011;11702;50.856;4.348;2022-08-19T14:28:09;3.97;;;2.40;;
23068;SDS011;11702;50.856;4.348;2022-08-19T14:30:36;5.47;;;1.77;;
23068;SDS011;11702;50.856;4.348;2022-08-19T14:33:03;3.25;;;1.80;;
23068;SDS011;11702;50.856;4.348;2022-08-19T14:35:31;3.67;;;2.20;;
23068;SDS011;11702;50.856;4.348;2022-08-19T14:38:03;3.03;;;1.90;;
23068;SDS011;11702;50.856;4.348;2022-08-19T14:40:30;2.92;;;1.98;;
23068;SDS011;11702;50.856;4.348;2022-08-19T14:42:58;2.72;;;1.75;;
23068;SDS011;11702;50.856;4.348;2022-08-19T14:45:29;4.88;;;2.40;;
23068;SDS011;11702;50.856;4.348;2022-08-19T14:47:59;3.45;;;2.60;;
23068;SDS011;11702;50.856;4.348;2022-08-19T14:50:25;3.65;;;2.67;;
23068;SDS011;11702;50.856;4.348;2022-08-19T14:52:57;3.03;;;2.35;;
23068;SDS011;11702;50.856;4.348;2022-08-19T14:55:29;5.05;;;2.40;;
23068;SDS011;11702;50.856;4.348;2022-08-19T14:57:55;4.88;;;1.90;;
23068;SDS011;11702;50.856;4.348;2022-08-19T15:00:21;3.20;;;2.00;;
23068;SDS011;11702;50.856;4.348;2022-08-19T15:02:48;5.47;;;2.85;;